Historyczne dane pomiarowe

Dodano dane terminowe – wersja testowa.

Dane z okresu 1951-2019

Wersja bazy: 1.34 [2019-03-16, lista zmian], aktualizacja planowana na 2019-04-15

Dane meteo z obszaru Polski uzyskane na podstawie danych udostępnionych przez Instytut Meteorologii i Gospodarki Wodnej – Państwowy Instytut Badawczy.

 

Wybierz Datę:    

       

TemperaturaWilgotnośćWiatrCiśnienieOpadyŚniegCzas trwania zjawisk
 Stacja t tx tn tng RH VA  wxwx mslp ppp RRR   cm mm wxwxwxwxwxwxwx
2004-08-13 17.5 21.8 13.2--- 5.7----- 1.0------------
2004-08-14 16.3 20.6 11.7--- 7.0----- 6.3------------
2004-08-15 14.7 20.7 9.8--- 1.7----- 0.0------------
2004-08-16 15.7 25.2 5.6--- 1.0----- 0.0------------
2004-08-17 17.9 27.4 7.6--- 3.3----- 0.0------------
2004-08-18 19.1 28.5 7.7--- 1.0----- 0.0------------
2004-08-19 21.2 29.7 11.8--- 1.3----- 0.0------------
2004-08-20 20.3 29.3 13.1--- 3.0----- 31.8------------
2004-08-21 16.6 20.0 13.0--- 7.0----- 4.0------------
2004-08-22 15.4 17.4 14.2--- 7.3----- 14.2------------
2004-08-23 13.8 20.0 8.2--- 2.7----- 0.0------------
2004-08-24 15.2 24.3 5.6--- 3.0----- 1.2------------
2004-08-25 18.1 23.4 13.8--- 5.3----- 0.0------------
2004-08-26 16.3 18.9 10.5--- 7.0----- 14.2------------
2004-08-27 14.2 17.4 10.5--- 7.0----- 0.0------------
2004-08-28 15.5 23.7 7.6--- 4.0----- 0.0------------
2004-08-29 17.6 26.4 10.9--- 1.3----- 0.0------------
2004-08-30 18.5 26.9 11.3--- 1.3----- 0.0------------
2004-08-31 15.5 20.3 12.7--- 8.0----- 4.9------------
2004-09-01 12.1 19.9 6.6--- 3.3----- 0.0------------
2004-09-02 12.2 21.5 4.0--- 1.3----- 0.0------------
2004-09-03 13.0 23.1 4.4--- 1.3----- 0.0------------
2004-09-04 14.4 24.2 5.7--- 4.0----- 0.5------------
2004-09-05 16.4 20.9 14.0--- 4.0----- 0.0------------
2004-09-06 14.1 22.1 9.0--- 2.7----- 0.0------------
2004-09-07 13.7 23.5 5.9--- 0.7----- 0.0------------
2004-09-08 14.7 18.9 9.8--- 3.7----- 0.0------------
2004-09-09 9.4 14.6 4.5--- 3.3----- 0.0------------
2004-09-10 9.8 16.4 5.1--- 1.7----- 0.0------------
2004-09-11 10.9 21.8 0.7--- 1.3----- 0.0------------
258.7 ms

 

Źródłem pochodzenia danych jest Instytut Meteorologii i Gospodarki Wodnej – Państwowy Instytut Badawczy. Dane Instytutu Meteorologii i Gospodarki Wodnej – Państwowego Instytutu Badawczego zostały przetworzone.

Dane źródłowe można odnaleźć na stronie https://dane.imgw.pl